createdAt,value
2022-08-17T00:00:43.835Z,2.40
2022-08-17T00:03:19.039Z,3.10
2022-08-17T00:05:50.473Z,3.00
2022-08-17T00:08:22.227Z,2.55
2022-08-17T00:10:54.805Z,3.00
2022-08-17T00:13:27.489Z,3.03
2022-08-17T00:16:02.261Z,3.00
2022-08-17T00:19:06.648Z,3.13
2022-08-17T00:21:25.302Z,2.95
2022-08-17T00:23:55.028Z,3.40
2022-08-17T00:26:34.891Z,3.40
2022-08-17T00:29:19.431Z,3.88
2022-08-17T00:31:51.294Z,3.13
2022-08-17T00:34:19.830Z,2.25
2022-08-17T00:36:48.028Z,3.13
2022-08-17T00:39:16.113Z,3.28
2022-08-17T00:41:44.578Z,4.15
2022-08-17T00:44:12.760Z,3.28
2022-08-17T00:46:44.360Z,3.05
2022-08-17T00:49:19.340Z,3.00
2022-08-17T00:51:53.646Z,2.90
2022-08-17T00:54:41.698Z,4.07
2022-08-17T00:57:17.167Z,2.88
2022-08-17T01:00:02.430Z,3.05
2022-08-17T01:02:42.724Z,3.72
2022-08-17T01:05:19.592Z,2.78
2022-08-17T01:07:51.479Z,3.08
2022-08-17T01:10:59.305Z,3.03
2022-08-17T01:13:15.582Z,3.28
2022-08-17T01:15:50.168Z,3.10
2022-08-17T01:18:18.570Z,4.57
2022-08-17T01:20:52.101Z,2.55
2022-08-17T01:23:25.296Z,3.33
2022-08-17T01:25:58.448Z,2.90
2022-08-17T01:28:52.636Z,3.72
2022-08-17T01:31:19.586Z,3.47
2022-08-17T01:33:47.710Z,3.55
2022-08-17T01:36:15.889Z,3.20
2022-08-17T01:38:45.411Z,3.72
2022-08-17T01:41:17.617Z,3.65
2022-08-17T01:43:52.245Z,3.38
2022-08-17T01:46:28.080Z,3.67
2022-08-17T01:48:58.168Z,3.78
2022-08-17T01:51:30.303Z,3.25
2022-08-17T01:54:05.165Z,3.30
2022-08-17T01:56:36.048Z,3.90
2022-08-17T01:59:05.083Z,3.63
2022-08-17T02:01:37.020Z,3.50
2022-08-17T02:04:08.359Z,3.63
2022-08-17T02:06:52.545Z,2.72
2022-08-17T02:09:25.450Z,3.47
2022-08-17T02:11:54.880Z,3.72
2022-08-17T02:14:25.740Z,3.30
2022-08-17T02:16:56.114Z,2.92
2022-08-17T02:19:24.383Z,3.70
2022-08-17T02:21:55.163Z,3.08
2022-08-17T02:25:00.026Z,3.35
2022-08-17T02:27:17.722Z,3.45
2022-08-17T02:29:46.048Z,3.55
2022-08-17T02:32:20.767Z,3.38
2022-08-17T02:34:56.129Z,3.05
2022-08-17T02:37:24.417Z,3.50
2022-08-17T02:39:54.235Z,4.07
2022-08-17T02:42:28.822Z,3.30
2022-08-17T02:44:56.923Z,3.35
2022-08-17T02:47:25.728Z,3.22
2022-08-17T02:49:55.808Z,3.28
2022-08-17T02:52:43.217Z,3.42
2022-08-17T02:55:18.933Z,3.25
2022-08-17T02:57:47.544Z,2.75
2022-08-17T03:00:22.835Z,3.08
2022-08-17T03:02:52.350Z,3.42
2022-08-17T03:05:25.074Z,3.38
2022-08-17T03:07:53.880Z,4.70
2022-08-17T03:10:25.618Z,3.58
2022-08-17T03:12:55.143Z,3.78
2022-08-17T03:15:27.208Z,3.03
2022-08-17T03:17:56.744Z,3.40
2022-08-17T03:20:26.090Z,2.90
2022-08-17T03:23:02.765Z,2.72
2022-08-17T03:25:38.634Z,4.20
2022-08-17T03:28:08.400Z,3.83
2022-08-17T03:30:37.667Z,4.13
2022-08-17T03:33:11.016Z,3.45
2022-08-17T03:35:41.706Z,3.92
2022-08-17T03:38:12.234Z,3.70
2022-08-17T03:40:59.021Z,3.40
2022-08-17T03:46:27.940Z,3.80
2022-08-17T03:49:17.914Z,4.20
2022-08-17T03:52:03.453Z,4.88
2022-08-17T03:54:49.009Z,3.72
2022-08-17T03:57:19.217Z,3.97
2022-08-17T03:59:47.896Z,3.83
2022-08-17T04:02:22.606Z,3.80
2022-08-17T04:04:52.237Z,3.88
2022-08-17T04:07:22.363Z,4.30
2022-08-17T04:09:50.741Z,3.97
2022-08-17T04:12:23.527Z,5.07
2022-08-17T04:14:54.857Z,4.13
2022-08-17T04:17:26.254Z,3.88
2022-08-17T04:19:56.268Z,3.95
2022-08-17T04:22:30.226Z,3.75
2022-08-17T04:25:00.176Z,3.97
2022-08-17T04:27:29.612Z,4.32
2022-08-17T04:29:58.479Z,4.43
2022-08-17T04:33:02.264Z,4.15
2022-08-17T04:35:20.222Z,4.03
2022-08-17T04:37:48.441Z,3.70
2022-08-17T04:40:34.786Z,4.10
2022-08-17T04:43:07.934Z,4.18
2022-08-17T04:45:55.004Z,4.30
2022-08-17T04:48:29.627Z,4.32
2022-08-17T04:51:09.434Z,4.00
2022-08-17T04:53:38.195Z,4.10
2022-08-17T04:56:07.356Z,5.07
2022-08-17T04:58:41.331Z,4.80
2022-08-17T05:01:09.987Z,5.22
2022-08-17T05:03:38.351Z,4.63
2022-08-17T05:06:06.996Z,3.95
2022-08-17T05:08:35.448Z,4.60
2022-08-17T05:11:03.864Z,4.85
2022-08-17T05:13:32.348Z,4.22
2022-08-17T05:16:04.708Z,4.82
2022-08-17T05:18:33.753Z,5.13
2022-08-17T05:21:03.333Z,4.55
2022-08-17T05:23:42.069Z,4.28
2022-08-17T05:26:25.475Z,4.95
2022-08-17T05:29:00.514Z,4.35
2022-08-17T05:31:32.823Z,4.05
2022-08-17T05:34:00.971Z,4.88
2022-08-17T05:36:41.763Z,4.80
2022-08-17T05:39:17.088Z,4.40
2022-08-17T05:41:48.651Z,4.57
2022-08-17T05:44:18.035Z,4.82
2022-08-17T05:46:53.948Z,4.10
2022-08-17T05:49:29.182Z,4.57
2022-08-17T05:52:21.773Z,3.67
2022-08-17T05:55:10.980Z,4.50
2022-08-17T05:58:00.207Z,4.43
2022-08-17T06:00:42.160Z,4.35
2022-08-17T06:03:30.019Z,4.25
2022-08-17T06:06:25.235Z,3.70
2022-08-17T06:09:25.758Z,4.97
2022-08-17T06:12:04.436Z,4.43
2022-08-17T06:14:55.401Z,4.50
2022-08-17T06:17:28.531Z,4.57
2022-08-17T06:20:01.455Z,5.13
2022-08-17T06:22:37.024Z,5.45
2022-08-17T06:25:16.333Z,5.10
2022-08-17T06:27:53.632Z,4.13
2022-08-17T06:30:25.907Z,5.38
2022-08-17T06:32:59.508Z,4.78
2022-08-17T06:35:39.323Z,5.22
2022-08-17T06:38:36.917Z,5.10
2022-08-17T06:41:18.812Z,6.60
2022-08-17T06:44:43.551Z,5.47
2022-08-17T06:47:09.265Z,5.32
2022-08-17T06:49:54.612Z,5.15
2022-08-17T06:52:45.438Z,5.60
2022-08-17T06:55:22.393Z,5.30
2022-08-17T06:57:56.529Z,5.18
2022-08-17T07:00:33.604Z,5.93
2022-08-17T07:03:15.479Z,6.05
2022-08-17T07:05:47.482Z,6.00
2022-08-17T07:08:35.044Z,4.95
2022-08-17T07:11:13.013Z,5.63
2022-08-17T07:13:53.043Z,5.25
2022-08-17T07:16:27.864Z,4.53
2022-08-17T07:18:58.883Z,4.75
2022-08-17T07:21:43.109Z,4.30
2022-08-17T07:24:35.617Z,4.18
2022-08-17T07:27:09.386Z,4.65
2022-08-17T07:29:43.952Z,4.20
2022-08-17T07:32:18.353Z,3.63
2022-08-17T07:35:10.616Z,4.03
2022-08-17T07:37:41.971Z,3.80
2022-08-17T07:40:34.704Z,3.60
2022-08-17T07:43:21.764Z,4.05
2022-08-17T07:46:33.914Z,3.85
2022-08-17T07:49:23.866Z,3.65
2022-08-17T07:52:24.120Z,4.80
2022-08-17T07:54:49.023Z,4.10
2022-08-17T07:57:40.596Z,4.13
2022-08-17T08:00:31.783Z,4.35
2022-08-17T08:03:26.153Z,4.70
2022-08-17T08:06:00.251Z,4.22
2022-08-17T08:08:38.109Z,4.68
2022-08-17T08:11:12.930Z,4.75
2022-08-17T08:13:45.558Z,6.88
2022-08-17T08:16:24.463Z,4.75
2022-08-17T08:18:57.944Z,5.47
2022-08-17T08:21:47.172Z,5.68
2022-08-17T08:24:53.778Z,5.55
2022-08-17T08:27:41.256Z,5.25
2022-08-17T08:30:18.267Z,4.72
2022-08-17T08:33:12.708Z,5.03
2022-08-17T08:35:52.465Z,4.05
2022-08-17T08:38:34.472Z,4.30
2022-08-17T08:41:38.342Z,4.97
2022-08-17T08:45:00.585Z,5.57
2022-08-17T08:47:55.193Z,4.80
2022-08-17T08:50:37.746Z,4.72
2022-08-17T08:53:23.523Z,4.90
2022-08-17T08:55:59.804Z,5.15
2022-08-17T08:58:44.687Z,4.32
2022-08-17T09:01:27.360Z,5.47
2022-08-17T09:04:28.739Z,4.78
2022-08-17T09:07:16.611Z,5.00
2022-08-17T09:10:00.395Z,4.65
2022-08-17T09:12:42.695Z,5.15
2022-08-17T09:15:18.898Z,5.07
2022-08-17T09:18:33.514Z,4.70
2022-08-17T09:20:56.829Z,5.90
2022-08-17T09:23:35.214Z,5.72
2022-08-17T09:26:15.580Z,5.07
2022-08-17T09:28:51.802Z,5.22
2022-08-17T09:31:33.107Z,4.75
2022-08-17T09:34:08.994Z,5.63
2022-08-17T09:36:50.980Z,4.50
2022-08-17T09:39:34.249Z,4.65
2022-08-17T09:42:17.000Z,4.85
2022-08-17T09:44:57.438Z,4.65
2022-08-17T09:47:34.583Z,3.63
2022-08-17T09:50:13.398Z,4.45
2022-08-17T09:52:44.787Z,4.18
2022-08-17T09:55:13.048Z,4.00
2022-08-17T09:57:59.844Z,5.22
2022-08-17T10:00:36.657Z,4.82
2022-08-17T10:03:32.383Z,4.53
2022-08-17T10:06:09.147Z,4.85
2022-08-17T10:08:52.404Z,4.78
2022-08-17T10:11:48.402Z,4.13
2022-08-17T10:14:38.094Z,3.53
2022-08-17T10:17:21.577Z,4.15
2022-08-17T10:20:02.352Z,4.55
2022-08-17T10:23:02.165Z,4.13
2022-08-17T10:25:55.689Z,4.40
2022-08-17T10:28:31.239Z,4.72
2022-08-17T10:31:33.812Z,5.05
2022-08-17T10:34:12.548Z,4.65
2022-08-17T10:36:55.289Z,3.55
2022-08-17T10:39:52.070Z,4.38
2022-08-17T10:42:32.606Z,4.95
2022-08-17T10:45:17.000Z,3.45
2022-08-17T10:48:05.270Z,3.00
2022-08-17T10:51:01.403Z,3.97
2022-08-17T10:53:56.383Z,3.45
2022-08-17T10:56:50.517Z,4.30
2022-08-17T10:59:53.314Z,3.28
2022-08-17T11:02:31.457Z,3.20
2022-08-17T11:05:19.653Z,3.20
2022-08-17T11:08:25.511Z,3.38
2022-08-17T11:11:15.668Z,3.67
2022-08-17T11:13:57.927Z,2.95
2022-08-17T11:16:51.122Z,2.72
2022-08-17T11:19:44.508Z,3.78
2022-08-17T11:23:14.852Z,3.00
2022-08-17T11:25:54.762Z,2.63
2022-08-17T11:28:28.171Z,2.97
2022-08-17T11:31:00.836Z,3.00
2022-08-17T11:34:07.413Z,3.22
2022-08-17T11:37:16.628Z,3.00
2022-08-17T11:40:10.653Z,3.47
2022-08-17T11:43:08.810Z,3.47
2022-08-17T11:46:02.931Z,2.88
2022-08-17T11:49:01.296Z,3.17
2022-08-17T11:52:15.407Z,2.63
2022-08-17T11:54:48.518Z,2.60
2022-08-17T11:58:00.166Z,2.60
2022-08-17T12:00:56.389Z,3.13
2022-08-17T12:03:56.889Z,2.53
2022-08-17T12:06:52.651Z,2.25
2022-08-17T12:09:26.996Z,2.60
2022-08-17T12:12:13.389Z,2.80
2022-08-17T12:15:09.446Z,2.97
2022-08-17T12:17:40.892Z,2.60
2022-08-17T12:20:16.519Z,2.50
2022-08-17T12:22:56.379Z,2.85
2022-08-17T12:25:34.781Z,2.40
2022-08-17T12:28:06.442Z,2.28
2022-08-17T12:30:37.138Z,2.70
2022-08-17T12:33:25.430Z,2.38
2022-08-17T12:36:03.108Z,2.40
2022-08-17T12:38:34.769Z,2.85
2022-08-17T12:41:22.444Z,2.28
2022-08-17T12:44:02.315Z,2.33
2022-08-17T12:46:35.741Z,2.53
2022-08-17T12:49:16.218Z,2.35
2022-08-17T12:51:46.624Z,2.13
2022-08-17T12:54:34.666Z,2.08
2022-08-17T12:57:11.281Z,3.35
2022-08-17T12:59:46.103Z,2.28
2022-08-17T13:02:33.556Z,3.55
2022-08-17T13:05:03.067Z,2.80
2022-08-17T13:07:36.142Z,2.72
2022-08-17T13:10:05.517Z,3.15
2022-08-17T13:12:37.427Z,3.65
2022-08-17T13:15:07.710Z,2.75
2022-08-17T13:17:38.057Z,2.53
2022-08-17T13:20:15.749Z,2.50
2022-08-17T13:22:45.067Z,2.95
2022-08-17T13:25:18.072Z,2.25
2022-08-17T13:27:52.011Z,2.88
2022-08-17T13:30:28.165Z,3.20
2022-08-17T13:32:58.486Z,2.30
2022-08-17T13:35:49.890Z,2.47
2022-08-17T13:38:41.111Z,2.30
2022-08-17T13:41:09.228Z,2.75
2022-08-17T13:43:49.593Z,2.30
2022-08-17T13:46:24.285Z,2.45
2022-08-17T13:49:03.019Z,2.50
2022-08-17T13:51:42.531Z,2.33
2022-08-17T13:54:28.237Z,2.42
2022-08-17T13:57:01.532Z,2.45
2022-08-17T13:59:54.262Z,2.17
2022-08-17T14:02:28.388Z,2.20
2022-08-17T14:05:00.474Z,2.05
2022-08-17T14:07:34.274Z,2.53
2022-08-17T14:10:10.376Z,2.83
2022-08-17T14:12:41.792Z,2.42
2022-08-17T14:15:14.154Z,2.85
2022-08-17T14:17:42.719Z,2.25
2022-08-17T14:20:14.209Z,2.40
2022-08-17T14:22:48.268Z,2.10
2022-08-17T14:25:20.855Z,2.60
2022-08-17T14:27:53.396Z,2.80
2022-08-17T14:30:28.930Z,2.63
2022-08-17T14:32:58.992Z,2.67
2022-08-17T14:35:29.301Z,2.40
2022-08-17T14:37:58.946Z,2.00
2022-08-17T14:40:28.060Z,2.53
2022-08-17T14:42:57.969Z,3.13
2022-08-17T14:45:32.718Z,2.90
2022-08-17T14:48:05.815Z,2.85
2022-08-17T14:50:35.325Z,2.70
2022-08-17T14:53:05.504Z,3.35
2022-08-17T14:55:34.645Z,2.65
2022-08-17T14:58:03.916Z,2.53
2022-08-17T15:00:34.019Z,2.70
2022-08-17T15:03:03.977Z,2.50
2022-08-17T15:05:36.588Z,2.70
2022-08-17T15:08:06.250Z,2.70
2022-08-17T15:10:35.734Z,3.53
2022-08-17T15:13:03.899Z,2.50
2022-08-17T15:15:33.350Z,2.47
2022-08-17T15:18:02.421Z,2.70
2022-08-17T15:20:31.455Z,2.97
2022-08-17T15:22:59.974Z,3.10
2022-08-17T15:25:32.175Z,2.60
2022-08-17T15:28:02.130Z,2.80
2022-08-17T15:30:31.836Z,2.58
2022-08-17T15:33:02.812Z,2.65
2022-08-17T15:35:33.734Z,2.50
2022-08-17T15:38:11.672Z,2.13
2022-08-17T15:40:44.677Z,2.05
2022-08-17T15:43:16.960Z,2.45
2022-08-17T15:45:54.884Z,2.50
2022-08-17T15:48:41.889Z,2.88
2022-08-17T15:51:14.891Z,2.30
2022-08-17T15:53:46.484Z,2.90
2022-08-17T15:56:16.076Z,2.60
2022-08-17T15:58:47.575Z,2.38
2022-08-17T16:02:27.757Z,2.88
2022-08-17T16:04:27.248Z,2.45
2022-08-17T16:06:58.707Z,2.70
2022-08-17T16:09:26.922Z,2.78
2022-08-17T16:11:55.915Z,2.38
2022-08-17T16:14:24.619Z,2.22
2022-08-17T16:17:01.753Z,2.42
2022-08-17T16:19:32.489Z,3.05
2022-08-17T16:22:01.387Z,2.80
2022-08-17T16:24:29.906Z,2.75
2022-08-17T16:26:58.072Z,2.25
2022-08-17T16:29:26.463Z,2.92
2022-08-17T16:31:54.930Z,3.15
2022-08-17T16:34:23.192Z,3.13
2022-08-17T16:36:56.195Z,3.20
2022-08-17T16:39:27.608Z,3.40
2022-08-17T16:41:56.194Z,3.00
2022-08-17T16:44:25.710Z,3.22
2022-08-17T16:46:53.794Z,2.88
2022-08-17T16:49:35.195Z,3.08
2022-08-17T16:52:11.299Z,3.20
2022-08-17T16:54:43.656Z,3.50
2022-08-17T16:57:13.777Z,3.05
2022-08-17T16:59:47.482Z,2.40
2022-08-17T17:02:24.715Z,2.80
2022-08-17T17:05:02.608Z,2.90
2022-08-17T17:08:03.194Z,3.00
2022-08-17T17:10:39.796Z,3.00
2022-08-17T17:13:19.055Z,2.70
2022-08-17T17:15:58.487Z,2.60
2022-08-17T17:18:40.811Z,2.88
2022-08-17T17:21:15.756Z,2.30
2022-08-17T17:23:55.977Z,3.00
2022-08-17T17:26:55.545Z,3.13
2022-08-17T17:29:47.574Z,2.85
2022-08-17T17:32:26.549Z,3.40
2022-08-17T17:35:06.857Z,4.10
2022-08-17T17:37:36.913Z,2.78
2022-08-17T17:40:16.472Z,3.20
2022-08-17T17:42:45.666Z,3.10
2022-08-17T17:45:21.998Z,8.98
2022-08-17T17:50:37.821Z,9.40
2022-08-17T17:55:57.072Z,4.85
2022-08-17T17:58:42.702Z,4.05
2022-08-17T18:01:45.165Z,7.22
2022-08-17T18:04:28.674Z,5.35
2022-08-17T18:07:18.982Z,15.05
2022-08-17T18:10:13.702Z,4.82
2022-08-17T18:13:03.286Z,4.03
2022-08-17T18:15:38.491Z,4.32
2022-08-17T18:18:40.764Z,3.25
2022-08-17T18:21:16.290Z,2.97
2022-08-17T18:23:49.672Z,3.78
2022-08-17T18:26:44.958Z,3.08
2022-08-17T18:29:31.731Z,3.90
2022-08-17T18:32:43.659Z,3.97
2022-08-17T18:35:35.600Z,8.07
2022-08-17T18:38:28.406Z,4.82
2022-08-17T18:41:18.097Z,18.33
2022-08-17T18:44:00.411Z,18.45
2022-08-17T18:46:35.947Z,9.50
2022-08-17T18:49:24.888Z,4.25
2022-08-17T18:52:13.875Z,3.22
2022-08-17T18:55:02.918Z,4.40
2022-08-17T18:57:35.809Z,3.03
2022-08-17T19:00:14.337Z,3.65
2022-08-17T19:02:55.387Z,2.75
2022-08-17T19:05:36.109Z,3.17
2022-08-17T19:08:23.927Z,2.83
2022-08-17T19:10:58.293Z,2.72
2022-08-17T19:13:35.007Z,3.80
2022-08-17T19:16:15.340Z,3.72
2022-08-17T19:18:53.318Z,2.80
2022-08-17T19:21:28.210Z,3.05
2022-08-17T19:24:08.088Z,4.03
2022-08-17T19:26:54.370Z,3.42
2022-08-17T19:29:34.376Z,3.58
2022-08-17T19:32:03.444Z,4.03
2022-08-17T19:34:36.519Z,3.17
2022-08-17T19:37:13.839Z,3.47
2022-08-17T19:39:54.180Z,3.30
2022-08-17T19:42:49.780Z,3.20
2022-08-17T19:45:40.184Z,3.25
2022-08-17T19:48:24.061Z,3.22
2022-08-17T19:51:04.764Z,3.28
2022-08-17T19:54:04.295Z,3.78
2022-08-17T19:56:46.177Z,3.65
2022-08-17T19:59:24.458Z,3.70
2022-08-17T20:02:01.363Z,3.75
2022-08-17T20:04:42.396Z,3.03
2022-08-17T20:07:20.811Z,3.90
2022-08-17T20:09:55.786Z,3.10
2022-08-17T20:12:30.547Z,3.42
2022-08-17T20:15:05.131Z,3.30
2022-08-17T20:17:39.540Z,3.60
2022-08-17T20:20:23.261Z,3.33
2022-08-17T20:23:03.742Z,3.40
2022-08-17T20:25:43.875Z,3.70
2022-08-17T20:28:24.794Z,3.42
2022-08-17T20:30:53.952Z,3.72
2022-08-17T20:33:29.718Z,4.00
2022-08-17T20:36:19.043Z,3.45
2022-08-17T20:38:55.876Z,2.97
2022-08-17T20:41:26.816Z,3.85
2022-08-17T20:44:06.045Z,3.58
2022-08-17T20:46:58.020Z,3.83
2022-08-17T20:49:41.310Z,3.58
2022-08-17T20:52:14.180Z,3.70
2022-08-17T20:54:49.766Z,3.63
2022-08-17T20:57:48.658Z,3.95
2022-08-17T21:00:43.769Z,3.28
2022-08-17T21:03:51.177Z,3.67
2022-08-17T21:06:24.956Z,3.05
2022-08-17T21:09:29.722Z,3.47
2022-08-17T21:12:05.570Z,3.85
2022-08-17T21:15:07.095Z,3.10
2022-08-17T21:17:51.380Z,3.60
2022-08-17T21:20:42.020Z,3.75
2022-08-17T21:23:32.754Z,3.28
2022-08-17T21:26:22.937Z,3.83
2022-08-17T21:29:30.349Z,2.65
2022-08-17T21:32:24.293Z,3.13
2022-08-17T21:35:30.408Z,3.40
2022-08-17T21:38:04.960Z,3.10
2022-08-17T21:40:35.307Z,3.47
2022-08-17T21:43:24.342Z,3.53
2022-08-17T21:46:02.861Z,3.75
2022-08-17T21:48:41.352Z,3.45
2022-08-17T21:51:17.582Z,3.15
2022-08-17T21:53:51.387Z,3.70
2022-08-17T21:56:26.891Z,3.40
2022-08-17T21:59:02.227Z,2.80
2022-08-17T22:01:35.932Z,3.03
2022-08-17T22:04:19.778Z,4.47
2022-08-17T22:06:56.858Z,3.90
2022-08-17T22:09:29.916Z,4.00
2022-08-17T22:12:06.661Z,3.65
2022-08-17T22:14:51.454Z,4.20
2022-08-17T22:17:26.208Z,3.38
2022-08-17T22:20:00.649Z,3.45
2022-08-17T22:22:35.424Z,3.40
2022-08-17T22:25:07.743Z,4.05
2022-08-17T22:27:55.826Z,3.67
2022-08-17T22:30:37.733Z,3.92
2022-08-17T22:33:45.203Z,3.08
2022-08-17T22:36:29.114Z,3.78
2022-08-17T22:39:00.026Z,3.70
2022-08-17T22:41:34.502Z,3.78
2022-08-17T22:44:18.740Z,4.45
2022-08-17T22:46:59.930Z,3.72
2022-08-17T22:49:38.785Z,4.45
2022-08-17T22:52:35.546Z,4.40
2022-08-17T22:55:47.076Z,4.93
2022-08-17T22:58:38.731Z,4.80
2022-08-17T23:01:28.175Z,3.78
2022-08-17T23:03:59.605Z,4.53
2022-08-17T23:06:32.523Z,3.92
2022-08-17T23:09:03.972Z,4.65
2022-08-17T23:11:47.780Z,3.95
2022-08-17T23:14:20.167Z,4.47
2022-08-17T23:16:50.197Z,3.72
2022-08-17T23:19:21.848Z,4.00
2022-08-17T23:21:54.115Z,4.95
2022-08-17T23:24:26.902Z,3.95
2022-08-17T23:26:57.243Z,4.32
2022-08-17T23:29:26.024Z,4.80
2022-08-17T23:31:55.064Z,4.68
2022-08-17T23:34:24.271Z,3.78
2022-08-17T23:36:53.940Z,4.05
2022-08-17T23:39:24.631Z,4.60
2022-08-17T23:41:58.122Z,5.35
2022-08-17T23:44:27.147Z,4.60
2022-08-17T23:46:55.851Z,4.60
2022-08-17T23:49:25.398Z,4.28
2022-08-17T23:51:55.284Z,4.07
2022-08-17T23:54:29.051Z,4.63
2022-08-17T23:56:57.356Z,4.57
2022-08-17T23:59:27.452Z,3.90
